This demonstration page uses our WeatherBlox Daily Observations layout. Learn more.

Left ArrowRight Arrow

38.83388, -104.82136

Hourly Observations for December 5, 2022

Temp ( °F °C ) Dew Point ( °F °C ) Humidity (%) Winds ( mph kmh ) Pressure ( in mb ) Visibility ( mi km ) Precip ( " mm )
12:55 am 00:55 Clear 47 8.5 16 -9 28 28 S 3 6 N/A 10 16 0.00 0.00
1:55 am 01:55 Clear 45 7.4 17 -8.6 31 31 SW 3 6 N/A 10 16 0.00 0.00
2:55 am 02:55 Clear 43 6.2 17 -8.5 34 34 WNW 9 15 N/A 10 16 0.00 0.00
3:55 am 03:55 Clear 45 7 17 -8.2 33 33 SSW 8 13 N/A 10 16 0.00 0.00
4:55 am 04:55 Clear 45 7.2 18 -8 33 33 SSE 7 11 N/A 10 16 0.00 0.00
5:55 am 05:55 Clear 44 6.7 17 -8.1 34 34 SSW 5 7 N/A 10 16 0.00 0.00
6:55 am 06:55 Clear 44 6.8 17 -8.4 33 33 Calm N/A 10 16 0.00 0.00
7:55 am 07:55 Sunny 47 8.1 17 -8.4 30 30 N 5 7 N/A 10 16 0.00 0.00
8:55 am 08:55 Sunny 50 10.1 17 -8.1 27 27 S 7 11 N/A 10 16 0.00 0.00
9:55 am 09:55 Sunny 49 9.3 16 -8.8 27 27 WNW 3 6 N/A 10 16 0.00 0.00
10:55 am 10:55 Sunny 55 12.7 17 -8.5 22 22 ESE 8 13 N/A 10 16 0.00 0.00
11:55 am 11:55 Mostly Cloudy 56 13.4 14 -9.8 19 19 SE 14 22 N/A 10 16 0.00 0.00
12:55 pm 12:55 Sunny 57 14.1 15 -9.2 19 19 ESE 10 17 29.38 995 10 16 0.00 0.00
1:55 pm 13:55 Sunny 57 13.7 11 -11.7 16 16 E 6 9 29.42 996 10 16 0.00 0.00
2:19 pm 14:19 Sunny 55 13 10 -12 16 16 SW 13 20 29.40 996 10 16 0.00 0.00
2:22 pm 14:22 Sunny 55 13 10 -12 16 16 S 14 22 29.39 995 10 16 0.00 0.00
2:55 pm 14:55 Mostly Cloudy 53 11.8 10 -12.5 17 17 E 6 9 29.27 991 10 16 0.00 0.00
3:55 pm 15:55 Sunny 51 10.6 10 -12.1 19 19 E 3 6 29.15 987 10 16 0.00 0.00
4:55 pm 16:55 Clear 44 6.8 21 -6.2 39 39 Calm 29.03 983 10 16 0.00 0.00
5:55 pm 17:55 Clear 40 4.5 24 -4.5 52 52 SSE 3 6 28.93 980 10 16 0.00 0.00
6:55 pm 18:55 Clear 40 4.4 24 -4.3 53 53 SSW 9 15 28.97 981 10 16 0.00 0.00
7:55 pm 19:55 Mostly Cloudy 37 2.5 24 -4.3 61 61 S 12 19 28.91 979 10 16 0.00 0.00
8:55 pm 20:55 Partly Cloudy 36 2.3 24 -4.5 61 61 S 13 20 28.89 978 10 16 0.00 0.00
9:55 pm 21:55 Mostly Clear 35 1.6 24 -4.7 63 63 S 16 26 28.88 978 10 16 0.00 0.00
10:55 pm 22:55 Partly Cloudy 33 0.5 23 -5.1 66 66 S 14 22 28.83 976 10 16 0.00 0.00
11:55 pm 23:55 Clear 32 0 22 -5.4 67 67 S 7 11 28.80 975 10 16 0.00 0.00

Powered by AerisWeather